James Reserve, California Weather observations

Data are for 10 minute period ending at time listed.
 Day   Time   Solar   Ave.   Ave.  Ave.  Vector  Max.   Baro.   Total    
  of    of     Rad.   Air    Rel.  Wind   Wind   Wind  Press.  Precip.   
Year   Day            Temp.  Hum.  Speed  Dir.   Gust                    
2016   (PST)  Kw/m2    F      %     mph   deg.    mph    mb.     in.     
-------------------------------------------------------------------------
 181   10:10   0.96   84.3    26    0.8   228     2.0   840.8    0.00 
 181   10:20   0.98   82.7    26    1.0   170     2.7   840.9    0.00 
 181   10:30   1.00   82.6    26    0.9   137     2.0   840.9    0.00 
 181   10:40   1.01   83.5    25    0.9   158     2.8   840.9    0.00 
 181   10:50   1.04   83.9    23    1.1   187     2.6   99999.0    0.00 
 181   11:00   1.04   84.2    22    0.8   179     2.0   841.0    0.00 
 181   11:10   1.05   84.4    21    1.0   187     3.5   841.0    0.00 
 181   11:20   1.05   84.8    19    0.9   192     3.0   841.0    0.00 
 181   11:30   1.05   84.6    18    0.9   155     2.6   841.0    0.00 
 181   11:40   1.04   85.9    18    0.8   164     2.1   841.0    0.00 
 181   11:50   1.04   86.3    18    0.9   145     2.1   841.0    0.00 
 181   12:00   1.05   86.6    18    1.0   174     2.1   840.0    0.00 
 181   12:10   1.05   87.2    16    1.0   225     2.8   840.0    0.00 
 181   12:20   1.04   87.0    16    0.8   163     2.1   840.0    0.00 
 181   12:30   1.03   87.2    17    1.0   181     2.2   840.0    0.00 
 181   12:40   1.02   88.3    17    0.8   155     1.9   840.0    0.00 
 181   12:50   1.01   86.4    18    0.9   190     3.3   840.0    0.00 
 181   13:00   1.00   86.9    18    0.9   180     2.4   840.0    0.00 
 181   13:10   0.98   86.2    20    1.0   173     3.5   840.0    0.00 
 181   13:20   0.97   87.1    20    1.0   158     2.5   840.0    0.00 
 181   13:30   0.95   86.6    19    1.2   136     3.0   840.0    0.00 
 181   13:40   0.95   86.6    19    0.9   193     3.0   840.0    0.00 
 181   13:50   0.92   86.7    18    0.8   128     2.1   840.0    0.00 
 181   14:00   0.90   87.0    19    1.1    47     3.5   840.0    0.00 
 181   14:10   0.50   86.7    19    0.9   121     2.8   840.0    0.00 
 181   14:20   0.08   86.1    20    1.0   122     2.7   840.0    0.00 
 181   14:30   0.07   86.0    20    1.0   175     2.1   840.0    0.00 
 181   14:40   0.09   85.1    21    0.7    99     2.2   840.0    0.00 
 181   14:50   0.07   85.2    21    1.0   138     2.6   840.0    0.00 
 181   15:00   0.07   84.6    21    0.9   152     2.2   840.0    0.00 
 181   15:10   0.16   84.7    22    0.9    66     2.5   839.0    0.00 
 181   15:20   0.08   84.1    20    0.8   241     1.9   839.0    0.00 
 181   15:30   0.11   83.8    22    0.7    90     2.8   839.0    0.00 
 181   15:40   0.13   83.9    25    1.0    98     3.3   839.0    0.00 
 181   15:50   0.04   83.6    27    0.9   141     2.7   839.0    0.00 
 181   16:00   0.04   83.2    28    1.0   104     2.9   839.0    0.00 
 181   16:10   0.04   82.5    29    0.8    94     2.0   839.0    0.00 
 181   16:20   0.04   81.8    30    0.8   139     2.2   839.0    0.00 
 181   16:30   0.04   81.2    32    0.9   356     2.5   839.0    0.00 
 181   16:40   0.04   80.7    33    0.7   164     2.0   839.0    0.00 
 181   16:50   0.03   79.9    34    0.6   149     2.5   839.0    0.00 
 181   17:00   0.03   79.1    35    0.8   222     2.3   839.0    0.00 
 181   17:10   0.03   78.3    36    0.6     2     2.8   839.0    0.00 
 181   17:20   0.03   77.8    38    0.5   165     1.5   839.0    0.00 
 181   17:30   0.03   77.0    39    0.5   220     1.6   839.0    0.00 
 181   17:40   0.02   76.4    41    0.4   236     1.0   839.0    0.00 
 181   17:50   0.02   75.5    42    0.4   240     1.1   839.0    0.00 
 181   18:00   0.02   74.3    45    0.2   283     0.5   839.0    0.00 
 181   18:10   0.01   73.4    46    0.2   305     0.6   839.0    0.00 
 181   18:20   0.01   72.6    47    0.3   342     0.6   839.0    0.00 
 181   18:30   0.01   71.8    48    0.3   358     0.6   839.0    0.00 
 181   18:40   0.00   71.2    48    0.4     5     0.7   839.0    0.00 
 181   18:50   0.00   70.4    49    0.3   340     0.6   839.0    0.00 
 181   19:00   0.00   69.3    51    0.3   348     0.7   839.0    0.00 
 181   19:10   0.00   68.3    52    0.2   339     0.5   839.0    0.00 
 181   19:20   0.00   67.3    54    0.3   349     0.6   839.0    0.00 
 181   19:30   0.00   66.7    54    0.3   350     0.5   839.0    0.00 
 181   19:40   0.00   65.9    56    0.2   335     0.5   839.0    0.00 
 181   19:50   0.00   65.2    57    0.4   358     0.5   840.0    0.00 
 181   20:00   0.00   64.8    58    0.4   354     0.7   840.0    0.00 
 181   20:10   0.00   64.2    58    0.3   341     0.5   840.0    0.00 
 181   20:20   0.00   63.8    59    0.4     4     0.6   840.0    0.00 
 181   20:30   0.00   63.4    59    0.3   347     0.6   840.0    0.00 
 181   20:40   0.00   63.1    59    0.3   353     0.5   840.0    0.00 
 181   20:50   0.00   62.7    60    0.3   358     0.6   840.0    0.00 
 181   21:00   0.00   62.3    60    0.2   351     0.4   840.0    0.00 
 181   21:10   0.00   61.8    60    0.2   333     0.5   840.0    0.00 
 181   21:20   0.00   61.7    61    0.2     3     0.5   840.0    0.00 
 181   21:30   0.00   61.3    59    0.3     7     0.7   840.0    0.00 
 181   21:40   0.00   61.1    57    0.3   358     0.5   840.0    0.00 
 181   21:50   0.00   60.7    54    0.3     7     0.5   840.0    0.00 
 181   22:00   0.00   60.5    52    0.2    11     0.4   840.0    0.00 
 181   22:10   0.00   60.1    52    0.3    23     0.7   840.0    0.00 
 181   22:20   0.00   60.1    52    0.3     8     0.5   840.0    0.00 
 181   22:30   0.00   59.8    51    0.3    13     0.5   840.0    0.00 
 181   22:40   0.00   59.7    51    0.3    28     0.6   840.0    0.00 
 181   22:50   0.00   59.5    49    0.3    10     0.5   840.0    0.00 
 181   23:00   0.00   59.4    46    0.4    29     0.8   840.0    0.00 
 181   23:10   0.00   59.3    44    0.3    27     0.5   839.0    0.00 
 181   23:20   0.00   58.9    44    0.3    23     0.4   839.0    0.00 
 181   23:30   0.00   58.7    43    0.3    26     0.5   839.0    0.00 
 181   23:40   0.00   58.6    42    0.2    16     0.4   839.0    0.00 
 181   23:50   0.00   58.5    42    0.2    19     0.3   839.0    0.00 
 182    0:00   0.00   58.3    42    0.2     9     0.3   839.0    0.00 
 182    0:10   0.00   58.4    42    0.3    33     0.4   839.0    0.00 
 182    0:20   0.00   58.4    43    0.3    26     0.5   839.0    0.00 
 182    0:30   0.00   58.4    45    0.4    39     0.5   839.0    0.00 
 182    0:40   0.00   58.6    48    0.2    38     0.4   839.0    0.00 
 182    0:50   0.00   58.8    50    0.3    37     0.5   839.0    0.00 
 182    1:00   0.00   58.8    52    0.3    38     0.5   839.0    0.00 
 182    1:10   0.00   58.8    54    0.3    34     0.5   839.0    0.00 
 182    1:20   0.00   58.9    55    0.3    31     0.7   839.0    0.00 
 182    1:30   0.00   58.9    56    0.2    30     0.5   838.0    0.00 
 182    1:40   0.00   58.8    56    0.4    31     0.7   838.0    0.00 
 182    1:50   0.00   58.9    55    0.3    34     0.6   838.0    0.00 
 182    2:00   0.00   58.7    53    0.3    32     0.5   838.0    0.00 
 182    2:10   0.00   58.5    52    0.4    30     0.8   838.0    0.00 
 182    2:20   0.00   58.4    50    0.2    22     0.4   838.0    0.00 
 182    2:30   0.00   58.3    48    0.4    33     0.9   838.0    0.00 
 182    2:40   0.00   58.1    48    0.3    20     0.9   838.0    0.00 
 182    2:50   0.00   57.8    48    0.3    41     0.6   838.0    0.00 
 182    3:00   0.00   57.8    48    0.2    15     0.4   838.0    0.00 
 182    3:10   0.00   57.5    48    0.3    31     0.6   838.0    0.00 
 182    3:20   0.00   57.4    48    0.3    33     0.5   838.0    0.00 
 182    3:30   0.00   57.3    47    0.2    20     0.4   838.0    0.00 
 182    3:40   0.00   57.2    47    0.2     8     0.5   838.0    0.00 
 182    3:50   0.00   56.8    47    0.3    34     0.5   838.0    0.00 
 182    4:00   0.00   56.8    47    0.3    26     0.5   838.0    0.00 
 182    4:10   0.00   56.6    47    0.2     4     0.4   838.0    0.00 
 182    4:20   0.00   56.4    47    0.3    42     0.6   838.0    0.00 
 182    4:30   0.00   56.4    46    0.2    15     0.4   838.0    0.00 
 182    4:40   0.00   56.3    47    0.3    27     0.4   838.0    0.00 
 182    4:50   0.00   56.1    47    0.2    21     0.4   838.0    0.00 
 182    5:00   0.00   56.0    48    0.3    33     0.6   839.0    0.00 
 182    5:10   0.01   56.1    48    0.2    23     0.4   839.0    0.00 
 182    5:20   0.01   56.2    48    0.2    27     0.6   839.0    0.00 
 182    5:30   0.01   56.2    49    0.2    14     0.6   839.0    0.00 
 182    5:40   0.01   56.1    50    0.1    20     0.3   839.0    0.00 
 182    5:50   0.02   56.1    52    0.3    40     0.7   839.0    0.00 
 182    6:00   0.02   56.1    54    0.2    31     0.4   839.0    0.00 
 182    6:10   0.03   56.3    55    0.4    43     0.7   839.0    0.00 
 182    6:20   0.19   57.1    54    0.5    50     0.7   839.0    0.00 
 182    6:30   0.27   58.7    54    0.4    45     0.7   839.0    0.00 
 182    6:40   0.30   60.0    52    0.5    49     0.8   839.0    0.00 
 182    6:50   0.34   61.3    51    0.6    51     0.9   839.0    0.00 
 182    7:00   0.38   62.5    50    0.5    47     1.0   839.0    0.00 
 182    7:10   0.42   63.3    50    0.7    47     1.1   839.0    0.00 
 182    7:20   0.46   64.7    48    0.6    52     1.0   839.0    0.00 
 182    7:30   0.50   66.2    46    0.6    47     1.1   839.0    0.00 
 182    7:40   0.54   68.2    45    0.7    50     1.0   839.0    0.00 
 182    7:50   0.57   70.2    43    0.5    48     1.0   839.0    0.00 
 182    8:00   0.61   71.5    44    0.4    41     0.9   839.0    0.00 
 182    8:10   0.64   73.3    41    0.4    79     0.9   839.0    0.00 
 182    8:20   0.67   76.1    37    0.5   116     1.2   839.0    0.00 
 182    8:30   0.70   77.4    36    0.7   103     2.0   839.0    0.00 
 182    8:40   0.73   77.8    37    0.5   115     1.5   839.0    0.00 
 182    8:50   0.76   77.8    39    0.6   160     1.4   839.0    0.00 
 182    9:00   0.78   77.5    39    0.6   166     1.6   839.0    0.00 
 182    9:10   0.82   77.8    39    0.7   166     1.8   839.0    0.00 
 182    9:20   0.84   78.1    36    0.7   157     1.9   839.0    0.00 
 182    9:30   0.87   78.3    36    0.8   167     1.9   839.0    0.00 
 182    9:40   0.88   78.9    35    0.7   135     2.0   839.0    0.00 
 182    9:50   0.91   79.3    33    0.9   170     2.1   839.0    0.00 
 182   10:00   0.92   80.1    34    0.7   191     2.1   839.0    0.00 

Return to James Reserve graphs page.


Western Regional Climate Center,wrcc@dri.edu